Main page
METAR-TAF:

METAR-TAF

Airports :

Bückeburg, Germany

Bückeburg Air Base

latitude: 52-17N, longitude: 009-05E, elevation: 70 m

Current weather observation

The report was made 50 minutes ago, at 21:20 UTC
Wind 2 kt from the East
Temperature 0°C
Humidity 86%
Pressure 1018 hPa
Visibility 10 km or more
Broken clouds at a height of 10000 ft

METAR: ETHB 192120Z 08002KT 9999 BKN100 M00/M02 Q1018 BLU BLU BECMG WHT

Time: 23:10 (22:10 UTC)

Forecast

The report was made 2 hours and 6 minutes ago, at 20:04 UTC
Forecast valid from 19 at 21 UTC to 20 at 06 UTC
Wind 5 kt from the East
Visibility 10 km or more
Broken clouds at a height of 10000 ft
Becoming
from 19 at 21 UTC to 19 at 23 UTC
Wind 3 kt from the East/Northeast
Visibility: 6000 m
Broken clouds at a height of 9000 ft

TAF: ETHB 192004Z 1921/2006 09005KT 9999 NSW BKN100 BECMG 1921/1923 07003KT 6000 NSW BKN090

Weather observations and forecasts of more than 4000 airports (METAR and TAF reports).

The available stations are represented by yellow and red dots on the map.

Hover mouse over dot to see the name of the station.

Then click to see weather observations and forecasts.

To change the map : click on the green buttons with a black cross to zoom in, on the green button with a dash to zoom out, or on the green arrows for adjacent maps.


METAR-TAF: